Friday, December 19, 2014
12:57 UTC
  |  Log In   |  Register Free
Airport Search:

Bishop International Airport
(KFNT)

FAA data valid effective November 13, 2014 - January 08, 2015 (unless otherwise noted).

 
 
 
 
 
 
 
 
 
 
 
 
 
 

Current Aviation Weather for Bishop International Airport (KFNT)

The most recent METAR observation for KFNT was updated at: 2114
METAR Summary (Translated METAR)
KFNT
182053Z 32006KT 4SM BR BKN007 OVC012 00/M02 A3016 RMK AO2 CIG 006V010 SLP224 I3001 T00001022 53003
KRNP
182115Z AUTO 31005KT 10SM OVC014 M01/M02 A3017 RMK AO2 T10081016
(17.4 nm NW from KFNT)
KD95
182053Z AUTO 35003KT 10SM OVC010 M02/M03 A3015 RMK AO2 T10161027
(21.6 nm NE from KFNT)
TAF Summary (Translated TAF)
KFNT
191120Z 1912/2012 36005KT P6SM BKN015 OVC025 FM191800 31005KT P6SM SCT020 FM200000 24003KT P6SM SKC
  Airport Weather Conditions for KFNT

 Current Weather at FNT
26° F
Overcast
North winds at 4.6 mph
FNT NOAA Radar

Pressure: 30.25 in
Humidity: 75%
Wind: North at 4.6 MPH (4 KT)
Dew Point: 19.0°F
Visibility: 10.00 mi


Airport Weather Forecast for KFNT

Translated METAR and TAF for KFNT
Translated METAR for KFNT (1257 UTC 19 December 2014)
found at http://aviationweather.gov/adds/metars/
 
METAR text: KFNT 191253Z 36004KT 10SM OVC015 M03/M07 A3026 RMK AO2 SLP258 T10331072
Conditions at: KFNT (FLINT , MI, US) observed 1253 UTC 19 December 2014
Temperature: -3.3°C (26°F)
Dewpoint: -7.2°C (19°F) [RH = 74%]
Pressure (altimeter): 30.26 inches Hg (1024.8 mb)
[Sea-level pressure: 1025.8 mb]
Winds: from the N (360 degrees) at 5 MPH (4 knots; 2.1 m/s)
Visibility: 10 or more miles (16+ km)
Ceiling: 1500 feet AGL
Clouds: overcast cloud deck at 1500 feet AGL
Weather: no significant weather observed at this time
Translated TAF for KFNT
Forecast for: KFNT (FLINT , MI, US)
TAF Text: KFNT 191120Z 1912/2012 36005KT P6SM BKN015 OVC025
Forecast period: 1200 to 1800 UTC 19 December 2014
Forecast type: FROM: standard forecast or significant change
Winds: from the N (360 degrees) at 6 MPH (5 knots; 2.6 m/s)
Visibility: 6 or more miles (10+ km)
Ceiling: 1500 feet AGL
Clouds: broken clouds at 1500 feet AGL
overcast cloud deck at 2500 feet AGL
Weather: no significant weather forecast for this period
TAF Text: FM191800 31005KT P6SM SCT020
Forecast period: 1800 UTC 19 December 2014 to 0000 UTC 20 December 2014
Forecast type: FROM: standard forecast or significant change
Winds: from the NW (310 degrees) at 6 MPH (5 knots; 2.6 m/s)
Visibility: 6 or more miles (10+ km)
Clouds: scattered clouds at 2000 feet AGL
Weather: no significant weather forecast for this period
TAF Text: FM200000 24003KT P6SM SKC
Forecast period: 0000 to 1200 UTC 20 December 2014
Forecast type: FROM: standard forecast or significant change
Winds: from the WSW (240 degrees) at 3 MPH (3 knots; 1.6 m/s)
Visibility: 6 or more miles (10+ km)
Clouds: clear skies
Weather: no significant weather forecast for this period

Find All Airport Services Find A Hotel Find A Rental Car Find A Golf Course Find A Restaurant $100 Hamburger



FBO's on the Field
FBO Company Facility Photos Services Transportation Aviation Fuel Prices: Prices include tax
Catering Weather Repair Courtesy Rental Type 100LL JetA JetA+ MOGAS 8087
 
Avflight Flint

This FBO has not yet been rated
FS:Avfuel
Last Updated: Dec-15
Login to update fuel prices
SS:
Contact Avflight FlintMore FBO Information
 
Add another FBO Facility Photos Catering Weather Repair Courtesy Rental Type 100LL JetA JetA+ MOGAS 8087
Services Transportation Aviation Fuel Prices: Prices include tax


model-print
model-print
model-print
model-print